Terminal Aerodrome Forecast
Issued by NWS

Home | Current Version | Previous Version | Text Only | Print | Product List | Glossary On
Versions: 1 2 3 4 5 6 7 8 9 10 11 12 13
000
FTUS45 KCYS 061728
TAFLAR
TAF
KLAR 061728Z 0618/0718 07008KT P6SM SCT070 BKN150
     FM061900 12013KT P6SM VCTS SCT060CB OVC100
     FM070400 10012KT P6SM VCSH OVC100
     FM071200 08010KT P6SM OVC015=

USA.gov is the U.S. government's official web portal to all federal, state and local government web resources and services.